createdAt,value
2023-05-04T00:00:09.997Z,13.48
2023-05-04T00:02:42.221Z,13.42
2023-05-04T00:05:15.570Z,13.38
2023-05-04T00:07:50.147Z,13.33
2023-05-04T00:10:23.140Z,13.33
2023-05-04T00:12:51.167Z,13.31
2023-05-04T00:15:19.318Z,13.31
2023-05-04T00:17:47.425Z,13.27
2023-05-04T00:20:15.622Z,13.26
2023-05-04T00:22:44.028Z,13.22
2023-05-04T00:25:11.981Z,13.20
2023-05-04T00:27:40.565Z,13.18
2023-05-04T00:30:09.366Z,13.17
2023-05-04T00:32:37.064Z,13.16
2023-05-04T00:35:05.799Z,13.12
2023-05-04T00:37:33.791Z,13.07
2023-05-04T00:40:02.223Z,13.04
2023-05-04T00:42:30.247Z,13.00
2023-05-04T00:44:58.141Z,12.99
2023-05-04T00:47:26.263Z,12.96
2023-05-04T00:49:54.442Z,12.94
2023-05-04T00:52:24.115Z,12.91
2023-05-04T00:54:53.031Z,12.87
2023-05-04T00:57:21.107Z,12.85
2023-05-04T00:59:48.996Z,12.79
2023-05-04T01:02:16.678Z,12.75
2023-05-04T01:04:45.056Z,12.72
2023-05-04T01:07:30.656Z,12.67
2023-05-04T01:10:12.519Z,12.62
2023-05-04T01:12:54.614Z,12.54
2023-05-04T01:15:24.227Z,12.50
2023-05-04T01:17:52.003Z,12.45
2023-05-04T01:20:19.889Z,12.41
2023-05-04T01:22:47.762Z,12.38
2023-05-04T01:25:17.921Z,12.28
2023-05-04T01:28:10.837Z,12.22
2023-05-04T01:30:43.551Z,12.15
2023-05-04T01:33:12.653Z,12.10
2023-05-04T01:35:41.459Z,12.06
2023-05-04T01:38:09.411Z,12.05
2023-05-04T01:40:37.065Z,12.01
2023-05-04T01:43:04.932Z,12.01
2023-05-04T01:45:32.659Z,11.97
2023-05-04T01:48:00.440Z,11.94
2023-05-04T01:50:28.538Z,11.90
2023-05-04T01:52:56.646Z,11.90
2023-05-04T01:55:24.565Z,11.88
2023-05-04T01:57:52.395Z,11.84
2023-05-04T02:00:20.086Z,11.79
2023-05-04T02:02:48.285Z,11.77
2023-05-04T02:05:17.992Z,11.75
2023-05-04T02:07:45.957Z,11.71
2023-05-04T02:10:13.851Z,11.68
2023-05-04T02:12:43.585Z,11.66
2023-05-04T02:15:12.088Z,11.66
2023-05-04T02:17:39.878Z,11.64
2023-05-04T02:20:09.284Z,11.61
2023-05-04T02:22:40.574Z,11.60
2023-05-04T02:25:09.323Z,11.59
2023-05-04T02:27:38.959Z,11.55
2023-05-04T02:30:10.099Z,11.54
2023-05-04T02:32:38.230Z,11.53
2023-05-04T02:35:08.089Z,11.53
2023-05-04T02:37:36.604Z,11.50
2023-05-04T02:40:05.731Z,11.50
2023-05-04T02:42:33.864Z,11.46
2023-05-04T02:45:01.877Z,11.45
2023-05-04T02:47:31.579Z,11.44
2023-05-04T02:50:01.170Z,11.43
2023-05-04T02:52:29.089Z,11.40
2023-05-04T02:54:57.206Z,11.39
2023-05-04T02:57:25.015Z,11.37
2023-05-04T02:59:53.079Z,11.37
2023-05-04T03:02:20.731Z,11.35
2023-05-04T03:04:48.653Z,11.34
2023-05-04T03:07:16.779Z,11.35
2023-05-04T03:09:47.412Z,11.36
2023-05-04T03:12:14.171Z,11.37
2023-05-04T03:14:43.009Z,11.37
2023-05-04T03:17:10.788Z,11.37
2023-05-04T03:19:38.772Z,11.38
2023-05-04T03:22:06.827Z,11.37
2023-05-04T03:24:37.542Z,11.38
2023-05-04T03:27:05.511Z,11.38
2023-05-04T03:29:34.296Z,11.39
2023-05-04T03:32:02.221Z,11.40
2023-05-04T03:34:31.091Z,11.36
2023-05-04T03:37:00.520Z,11.37
2023-05-04T03:39:53.782Z,11.36
2023-05-04T03:43:23.226Z,11.37
2023-05-04T03:46:04.478Z,11.40
2023-05-04T03:51:50.055Z,11.46
2023-05-04T03:54:20.662Z,11.49
2023-05-04T03:56:52.745Z,11.53
2023-05-04T03:59:29.135Z,11.56
2023-05-04T04:05:14.929Z,11.57
2023-05-04T04:07:50.754Z,11.58
2023-05-04T04:10:21.328Z,11.61
2023-05-04T04:12:50.421Z,11.61
2023-05-04T04:15:18.448Z,11.63
2023-05-04T04:17:48.050Z,11.63
2023-05-04T04:20:26.082Z,11.64
2023-05-04T04:26:34.825Z,11.68
2023-05-04T04:29:25.392Z,11.71
2023-05-04T04:32:02.338Z,11.74
2023-05-04T04:35:01.203Z,11.77
2023-05-04T04:37:29.939Z,11.77
2023-05-04T04:40:02.191Z,11.77
2023-05-04T04:42:52.155Z,11.76
2023-05-04T04:45:22.245Z,11.70
2023-05-04T04:47:53.240Z,11.68
2023-05-04T04:50:21.476Z,11.65
2023-05-04T04:52:49.468Z,11.66
2023-05-04T04:55:19.733Z,11.69
2023-05-04T04:57:47.737Z,11.74
2023-05-04T05:00:16.926Z,11.78
2023-05-04T05:02:45.526Z,11.80
2023-05-04T05:05:13.831Z,11.81
2023-05-04T05:07:42.074Z,11.82
2023-05-04T05:10:12.026Z,11.83
2023-05-04T05:12:39.977Z,11.73
2023-05-04T05:15:08.877Z,11.82
2023-05-04T05:17:39.811Z,11.80
2023-05-04T05:20:12.194Z,11.77
2023-05-04T05:22:40.819Z,11.70
2023-05-04T05:25:09.147Z,11.68
2023-05-04T05:27:37.093Z,11.69
2023-05-04T05:30:06.436Z,11.68
2023-05-04T05:32:36.121Z,11.69
2023-05-04T05:35:05.747Z,11.70
2023-05-04T05:37:33.665Z,11.71
2023-05-04T05:40:08.154Z,11.74
2023-05-04T05:42:42.383Z,11.78
2023-05-04T05:45:12.089Z,11.80
2023-05-04T05:47:40.133Z,11.84
2023-05-04T05:50:08.965Z,11.88
2023-05-04T05:52:36.629Z,11.91
2023-05-04T05:55:05.813Z,11.96
2023-05-04T05:57:35.294Z,11.98
2023-05-04T06:00:04.794Z,11.97
2023-05-04T06:02:34.597Z,11.96
2023-05-04T06:05:03.161Z,11.92
2023-05-04T06:07:31.450Z,11.92
2023-05-04T06:09:59.564Z,11.95
2023-05-04T06:12:27.660Z,11.99
2023-05-04T06:14:55.834Z,12.03
2023-05-04T06:17:23.714Z,12.08
2023-05-04T06:19:54.422Z,12.11
2023-05-04T06:22:22.379Z,12.15
2023-05-04T06:24:50.772Z,12.18
2023-05-04T06:30:30.027Z,12.25
2023-05-04T06:32:58.129Z,12.27
2023-05-04T06:35:29.299Z,12.22
2023-05-04T06:37:57.981Z,12.33
2023-05-04T06:40:27.433Z,12.36
2023-05-04T06:42:57.195Z,12.39
2023-05-04T06:45:26.333Z,12.42
2023-05-04T06:47:55.984Z,12.46
2023-05-04T06:50:24.107Z,12.48
2023-05-04T06:52:52.246Z,12.50
2023-05-04T06:55:22.147Z,12.52
2023-05-04T06:57:51.773Z,12.54
2023-05-04T07:00:20.065Z,12.56
2023-05-04T07:02:48.249Z,12.61
2023-05-04T07:05:17.179Z,12.65
2023-05-04T07:07:45.153Z,12.66
2023-05-04T07:10:14.622Z,12.69
2023-05-04T07:12:43.380Z,12.68
2023-05-04T07:15:11.815Z,12.70
2023-05-04T07:17:59.737Z,12.71
2023-05-04T07:20:27.904Z,12.74
2023-05-04T07:22:56.642Z,12.78
2023-05-04T07:25:25.676Z,12.78
2023-05-04T07:27:54.398Z,12.82
2023-05-04T07:30:22.289Z,12.84
2023-05-04T07:32:50.328Z,12.86
2023-05-04T07:35:18.752Z,12.89
2023-05-04T07:37:46.634Z,12.93
2023-05-04T07:40:15.038Z,12.94
2023-05-04T07:42:42.975Z,12.96
2023-05-04T07:45:11.443Z,12.97
2023-05-04T07:47:39.345Z,12.97
2023-05-04T07:50:08.380Z,12.90
2023-05-04T07:52:38.246Z,12.98
2023-05-04T07:55:07.959Z,12.98
2023-05-04T07:57:37.355Z,13.02
2023-05-04T08:00:06.609Z,13.04
2023-05-04T08:02:36.556Z,13.05
2023-05-04T08:05:05.186Z,13.05
2023-05-04T08:07:33.144Z,13.07
2023-05-04T08:10:00.998Z,13.13
2023-05-04T08:12:29.080Z,13.16
2023-05-04T08:14:57.099Z,13.21
2023-05-04T08:17:24.934Z,13.26
2023-05-04T08:19:52.653Z,13.31
2023-05-04T08:22:20.684Z,13.38
2023-05-04T08:24:48.327Z,13.47
2023-05-04T08:27:16.266Z,13.58
2023-05-04T08:29:44.254Z,13.69
2023-05-04T08:32:11.777Z,13.79
2023-05-04T08:34:39.724Z,13.91
2023-05-04T08:37:07.245Z,14.00
2023-05-04T08:39:35.466Z,14.11
2023-05-04T08:42:04.602Z,14.21
2023-05-04T08:44:34.164Z,14.28
2023-05-04T08:47:03.964Z,14.36
2023-05-04T08:49:31.863Z,14.41
2023-05-04T08:52:00.583Z,14.37
2023-05-04T08:54:29.390Z,14.36
2023-05-04T08:56:58.196Z,14.32
2023-05-04T08:59:29.303Z,14.37
2023-05-04T09:01:59.293Z,14.41
2023-05-04T09:04:29.641Z,14.38
2023-05-04T09:06:58.095Z,14.39
2023-05-04T09:09:28.679Z,14.34
2023-05-04T09:11:56.138Z,14.30
2023-05-04T09:14:34.139Z,14.23
2023-05-04T09:17:04.090Z,14.16
2023-05-04T09:19:35.087Z,14.17
2023-05-04T09:22:06.775Z,14.14
2023-05-04T09:24:34.412Z,14.17
2023-05-04T09:27:13.484Z,14.24
2023-05-04T09:29:44.541Z,14.30
2023-05-04T09:32:16.402Z,14.38
2023-05-04T09:34:51.371Z,14.39
2023-05-04T09:37:20.667Z,14.41
2023-05-04T09:39:55.696Z,14.47
2023-05-04T09:42:24.712Z,14.53
2023-05-04T09:45:02.628Z,14.60
2023-05-04T09:47:39.801Z,14.62
2023-05-04T09:50:21.783Z,14.67
2023-05-04T09:52:50.810Z,14.76
2023-05-04T09:55:29.117Z,14.85
2023-05-04T09:57:57.663Z,14.92
2023-05-04T10:00:26.436Z,14.97
2023-05-04T10:02:56.622Z,15.06
2023-05-04T10:05:25.462Z,15.17
2023-05-04T10:07:53.373Z,15.31
2023-05-04T10:10:21.426Z,15.43
2023-05-04T10:12:49.429Z,15.60
2023-05-04T10:15:19.414Z,15.68
2023-05-04T10:18:01.572Z,15.73
2023-05-04T10:21:11.384Z,15.75
2023-05-04T10:24:01.118Z,15.78
2023-05-04T10:27:10.898Z,15.80
2023-05-04T10:29:41.752Z,15.79
2023-05-04T10:32:23.001Z,15.76
2023-05-04T10:34:51.823Z,15.72
2023-05-04T10:37:21.839Z,15.60
2023-05-04T10:39:54.139Z,15.57
2023-05-04T10:42:22.502Z,15.55
2023-05-04T10:44:59.694Z,15.48
2023-05-04T10:47:33.957Z,15.49
2023-05-04T10:50:11.824Z,15.59
2023-05-04T10:52:53.130Z,15.70
2023-05-04T10:55:24.989Z,15.85
2023-05-04T10:57:58.011Z,15.96
2023-05-04T11:00:39.162Z,16.06
2023-05-04T11:03:07.859Z,16.11
2023-05-04T11:05:46.735Z,16.17
2023-05-04T11:08:21.174Z,16.21
2023-05-04T11:11:06.940Z,16.28
2023-05-04T11:13:45.722Z,16.33
2023-05-04T11:16:27.179Z,16.38
2023-05-04T11:19:12.092Z,16.36
2023-05-04T11:21:44.655Z,16.31
2023-05-04T11:24:12.494Z,16.26
2023-05-04T11:26:49.629Z,16.21
2023-05-04T11:29:18.621Z,16.05
2023-05-04T11:31:55.207Z,15.87
2023-05-04T11:34:23.072Z,15.67
2023-05-04T11:36:51.912Z,15.45
2023-05-04T11:39:20.456Z,15.19
2023-05-04T11:41:49.428Z,14.93
2023-05-04T11:44:18.714Z,14.72
2023-05-04T11:46:47.399Z,14.54
2023-05-04T11:49:15.235Z,14.24
2023-05-04T11:51:43.002Z,14.11
2023-05-04T11:54:22.806Z,14.05
2023-05-04T11:56:50.966Z,13.91
2023-05-04T11:59:18.888Z,13.82
2023-05-04T12:01:47.806Z,13.67
2023-05-04T12:04:15.563Z,13.59
2023-05-04T12:06:43.412Z,13.51
2023-05-04T12:09:11.000Z,13.53
2023-05-04T12:11:40.196Z,13.50
2023-05-04T12:14:16.517Z,13.36
2023-05-04T12:16:57.001Z,13.34
2023-05-04T12:19:24.747Z,13.28
2023-05-04T12:21:53.985Z,13.12
2023-05-04T12:24:23.333Z,13.03
2023-05-04T12:26:51.542Z,13.01
2023-05-04T12:29:19.485Z,12.86
2023-05-04T12:31:47.697Z,12.75
2023-05-04T12:34:15.402Z,12.55
2023-05-04T12:36:44.030Z,12.48
2023-05-04T12:39:11.768Z,12.34
2023-05-04T12:41:39.618Z,12.29
2023-05-04T12:44:09.055Z,12.25
2023-05-04T12:46:39.223Z,12.18
2023-05-04T12:49:12.582Z,12.01
2023-05-04T12:51:40.367Z,11.90
2023-05-04T12:54:10.694Z,11.85
2023-05-04T12:56:40.749Z,11.77
2023-05-04T12:59:10.392Z,11.70
2023-05-04T13:01:43.181Z,11.65
2023-05-04T13:04:10.662Z,11.62
2023-05-04T13:06:38.675Z,11.64
2023-05-04T13:09:06.391Z,11.65
2023-05-04T13:11:34.455Z,11.67
2023-05-04T13:14:02.248Z,11.70
2023-05-04T13:16:30.146Z,11.73
2023-05-04T13:18:58.215Z,11.82
2023-05-04T13:21:25.872Z,11.90
2023-05-04T13:23:53.777Z,11.99
2023-05-04T13:26:33.520Z,12.06
2023-05-04T13:29:04.555Z,12.12
2023-05-04T13:31:32.579Z,12.25
2023-05-04T13:34:00.183Z,12.35
2023-05-04T13:36:27.936Z,12.42
2023-05-04T13:38:55.721Z,12.50
2023-05-04T13:41:24.289Z,12.57
2023-05-04T13:43:52.066Z,12.62
2023-05-04T13:46:21.211Z,12.65
2023-05-04T13:48:49.150Z,12.68
2023-05-04T13:51:17.121Z,12.74
2023-05-04T13:53:45.972Z,12.77
2023-05-04T13:56:17.533Z,12.86
2023-05-04T13:58:45.594Z,12.94
2023-05-04T14:01:19.919Z,12.96
2023-05-04T14:03:48.060Z,12.95
2023-05-04T14:06:15.993Z,13.00
2023-05-04T14:08:44.584Z,13.04
2023-05-04T14:11:16.370Z,13.11
2023-05-04T14:13:45.303Z,13.11
2023-05-04T14:16:13.965Z,13.12
2023-05-04T14:18:42.254Z,13.16
2023-05-04T14:21:13.055Z,13.21
2023-05-04T14:23:40.781Z,13.25
2023-05-04T14:26:08.589Z,13.30
2023-05-04T14:28:36.633Z,13.23
2023-05-04T14:31:07.489Z,13.18
2023-05-04T14:33:41.467Z,13.19
2023-05-04T14:36:11.174Z,13.26
2023-05-04T14:38:38.875Z,13.29
2023-05-04T14:41:09.688Z,13.34
2023-05-04T14:43:37.298Z,13.38
2023-05-04T14:46:04.932Z,13.44
2023-05-04T14:48:32.740Z,13.44
2023-05-04T14:51:00.359Z,13.40
2023-05-04T14:53:29.446Z,13.47
2023-05-04T14:55:57.222Z,13.55
2023-05-04T14:58:26.052Z,13.61
2023-05-04T15:00:53.795Z,13.63
2023-05-04T15:03:22.060Z,13.64
2023-05-04T15:05:50.253Z,13.66
2023-05-04T15:08:17.964Z,13.51
2023-05-04T15:10:45.743Z,13.40
2023-05-04T15:13:15.310Z,13.33
2023-05-04T15:15:43.252Z,13.21
2023-05-04T15:18:11.249Z,13.14
2023-05-04T15:20:38.924Z,13.07
2023-05-04T15:23:10.648Z,13.04
2023-05-04T15:25:39.428Z,12.98
2023-05-04T15:28:10.122Z,12.92
2023-05-04T15:30:39.784Z,12.87
2023-05-04T15:33:08.253Z,12.85
2023-05-04T15:35:38.209Z,12.86
2023-05-04T15:38:05.779Z,12.88
2023-05-04T15:40:33.917Z,12.91
2023-05-04T15:43:01.964Z,12.91
2023-05-04T15:45:29.841Z,12.94
2023-05-04T15:47:59.449Z,12.97
2023-05-04T15:50:27.144Z,12.99
2023-05-04T15:52:54.849Z,13.02
2023-05-04T15:55:26.301Z,13.01
2023-05-04T15:57:55.285Z,12.97
2023-05-04T16:00:23.356Z,12.96
2023-05-04T16:02:51.440Z,12.90
2023-05-04T16:05:20.714Z,12.88
2023-05-04T16:07:48.935Z,12.86
2023-05-04T16:10:16.632Z,12.84
2023-05-04T16:12:44.541Z,12.87
2023-05-04T16:15:12.185Z,12.89
2023-05-04T16:17:39.815Z,12.89
2023-05-04T16:20:08.785Z,12.85
2023-05-04T16:22:36.729Z,12.84
2023-05-04T16:25:08.939Z,12.87
2023-05-04T16:27:37.279Z,12.86
2023-05-04T16:30:09.404Z,12.80
2023-05-04T16:32:40.275Z,12.75
2023-05-04T16:35:09.303Z,12.72
2023-05-04T16:37:42.449Z,12.73
2023-05-04T16:40:14.558Z,12.75
2023-05-04T16:42:45.152Z,12.76
2023-05-04T16:45:13.964Z,12.76
2023-05-04T16:47:45.329Z,12.76
2023-05-04T16:50:14.323Z,12.76
2023-05-04T16:52:42.113Z,12.76
2023-05-04T16:55:12.060Z,12.78
2023-05-04T16:57:40.236Z,12.79
2023-05-04T17:00:10.240Z,12.75
2023-05-04T17:02:38.178Z,12.71
2023-05-04T17:05:09.851Z,12.69
2023-05-04T17:07:42.719Z,12.70
2023-05-04T17:10:11.303Z,12.70
2023-05-04T17:12:39.223Z,12.71
2023-05-04T17:15:08.760Z,12.71
2023-05-04T17:17:37.784Z,12.68
2023-05-04T17:20:08.854Z,12.66
2023-05-04T17:22:36.849Z,12.60
2023-05-04T17:25:05.603Z,12.58
2023-05-04T17:27:33.378Z,12.56
2023-05-04T17:30:02.104Z,12.55
2023-05-04T17:32:30.334Z,12.53
2023-05-04T17:35:08.351Z,12.50
2023-05-04T17:37:30.560Z,12.49
2023-05-04T17:39:58.498Z,12.47
2023-05-04T17:42:27.196Z,12.45
2023-05-04T17:44:54.940Z,12.41
2023-05-04T17:47:22.895Z,12.39
2023-05-04T17:49:50.736Z,12.37
2023-05-04T17:52:18.431Z,12.33
2023-05-04T17:54:46.706Z,12.31
2023-05-04T17:57:16.082Z,12.30
2023-05-04T17:59:44.094Z,12.26
2023-05-04T18:02:12.069Z,12.25
2023-05-04T18:04:39.890Z,12.21
2023-05-04T18:07:07.757Z,12.19
2023-05-04T18:09:35.872Z,12.18
2023-05-04T18:12:03.794Z,12.15
2023-05-04T18:14:31.465Z,12.12
2023-05-04T18:16:59.205Z,12.10
2023-05-04T18:19:27.419Z,12.07
2023-05-04T18:21:55.121Z,12.04
2023-05-04T18:24:22.655Z,12.01
2023-05-04T18:26:54.158Z,12.00
2023-05-04T18:29:21.981Z,11.96
2023-05-04T18:31:49.849Z,11.93
2023-05-04T18:34:17.484Z,11.91
2023-05-04T18:36:46.513Z,11.88
2023-05-04T18:39:15.331Z,11.83
2023-05-04T18:41:42.901Z,11.78
2023-05-04T18:44:16.704Z,11.71
2023-05-04T18:46:45.521Z,11.62
2023-05-04T18:49:14.466Z,11.53
2023-05-04T18:51:42.288Z,11.45
2023-05-04T18:54:10.036Z,11.38
2023-05-04T18:56:37.682Z,11.30
2023-05-04T18:59:06.114Z,11.22
2023-05-04T19:01:34.689Z,11.16
2023-05-04T19:04:04.341Z,11.13
2023-05-04T19:06:32.580Z,11.09
2023-05-04T19:09:03.650Z,11.07
2023-05-04T19:11:31.397Z,11.06
2023-05-04T19:13:59.020Z,11.05
2023-05-04T19:16:27.147Z,11.04
2023-05-04T19:18:55.217Z,11.02
2023-05-04T19:21:22.762Z,11.02
2023-05-04T19:23:51.036Z,11.01
2023-05-04T19:26:19.101Z,11.01
2023-05-04T19:28:47.573Z,10.99
2023-05-04T19:31:16.552Z,10.97
2023-05-04T19:33:48.580Z,10.91
2023-05-04T19:36:14.348Z,10.87
2023-05-04T19:38:42.102Z,10.82
2023-05-04T19:41:10.272Z,10.82
2023-05-04T19:43:41.707Z,10.79
2023-05-04T19:46:09.973Z,10.77
2023-05-04T19:48:40.484Z,10.72
2023-05-04T19:51:08.610Z,10.68
2023-05-04T19:53:37.744Z,10.63
2023-05-04T19:56:05.762Z,10.57
2023-05-04T19:58:33.722Z,10.49
2023-05-04T20:01:01.251Z,10.43
2023-05-04T20:03:29.016Z,10.38
2023-05-04T20:05:56.797Z,10.37
2023-05-04T20:08:27.112Z,10.36
2023-05-04T20:10:54.987Z,10.36
2023-05-04T20:13:25.050Z,10.34
2023-05-04T20:15:56.087Z,10.34
2023-05-04T20:18:23.798Z,10.35
2023-05-04T20:20:51.685Z,10.35
2023-05-04T20:23:19.926Z,10.36
2023-05-04T20:25:48.339Z,10.37
2023-05-04T20:28:16.380Z,10.40
2023-05-04T20:30:45.930Z,10.41
2023-05-04T20:33:13.853Z,10.42
2023-05-04T20:35:43.716Z,10.41
2023-05-04T20:38:12.183Z,10.39
2023-05-04T20:40:39.988Z,10.38
2023-05-04T20:43:07.868Z,10.36
2023-05-04T20:45:36.012Z,10.33
2023-05-04T20:48:04.752Z,10.32
2023-05-04T20:50:32.566Z,10.32
2023-05-04T20:53:00.841Z,10.30
2023-05-04T20:55:28.594Z,10.25
2023-05-04T20:57:56.448Z,10.23
2023-05-04T21:00:24.333Z,10.20
2023-05-04T21:02:52.079Z,10.21
2023-05-04T21:05:19.896Z,10.20
2023-05-04T21:07:48.044Z,10.20
2023-05-04T21:10:19.138Z,10.17
2023-05-04T21:12:46.990Z,10.16
2023-05-04T21:15:15.414Z,10.15
2023-05-04T21:17:43.232Z,10.15
2023-05-04T21:20:11.075Z,10.16
2023-05-04T21:22:38.920Z,10.16
2023-05-04T21:25:07.288Z,10.16
2023-05-04T21:27:35.760Z,10.14
2023-05-04T21:30:07.591Z,10.13
2023-05-04T21:32:35.892Z,10.11
2023-05-04T21:35:04.043Z,10.07
2023-05-04T21:37:31.778Z,10.03
2023-05-04T21:39:59.518Z,10.01
2023-05-04T21:42:27.296Z,9.95
2023-05-04T21:44:56.850Z,9.87
2023-05-04T21:47:25.735Z,9.83
2023-05-04T21:49:54.138Z,9.78
2023-05-04T21:52:23.737Z,9.74
2023-05-04T21:54:51.372Z,9.70
2023-05-04T21:57:19.123Z,9.66
2023-05-04T21:59:50.003Z,9.60
2023-05-04T22:02:17.729Z,9.57
2023-05-04T22:04:45.804Z,9.52
2023-05-04T22:07:13.731Z,9.44
2023-05-04T22:09:41.328Z,9.39
2023-05-04T22:12:08.981Z,9.33
2023-05-04T22:14:36.492Z,9.28
2023-05-04T22:17:04.630Z,9.22
2023-05-04T22:19:32.806Z,9.19
2023-05-04T22:22:00.736Z,9.16
2023-05-04T22:24:29.008Z,9.14
2023-05-04T22:26:56.931Z,9.10
2023-05-04T22:29:24.716Z,9.05
2023-05-04T22:31:54.186Z,9.02
2023-05-04T22:34:21.865Z,8.97
2023-05-04T22:36:51.636Z,8.93
2023-05-04T22:39:19.215Z,8.88
2023-05-04T22:41:46.839Z,8.81
2023-05-04T22:44:14.618Z,8.77
2023-05-04T22:46:42.599Z,8.68
2023-05-04T22:49:10.336Z,8.62
2023-05-04T22:51:38.098Z,8.53
2023-05-04T22:54:05.858Z,8.43
2023-05-04T22:56:33.753Z,8.35
2023-05-04T22:59:01.481Z,8.29
2023-05-04T23:01:29.709Z,8.27
2023-05-04T23:03:57.587Z,8.27
2023-05-04T23:06:25.384Z,8.24
2023-05-04T23:08:53.044Z,8.20
2023-05-04T23:11:21.519Z,8.16
2023-05-04T23:13:49.245Z,8.10
2023-05-04T23:16:17.576Z,8.08
2023-05-04T23:18:47.095Z,8.05
2023-05-04T23:21:14.852Z,8.03
2023-05-04T23:23:42.535Z,8.03
2023-05-04T23:26:09.976Z,8.02
2023-05-04T23:28:37.558Z,7.99
2023-05-04T23:31:05.431Z,7.98
2023-05-04T23:33:33.123Z,7.94
2023-05-04T23:36:01.405Z,7.86
2023-05-04T23:38:29.104Z,7.81
2023-05-04T23:40:56.873Z,7.80
2023-05-04T23:43:24.676Z,7.77
2023-05-04T23:46:03.768Z,7.73
2023-05-04T23:48:32.360Z,7.67
2023-05-04T23:51:04.082Z,7.57
2023-05-04T23:53:33.168Z,7.51
2023-05-04T23:56:04.516Z,7.47
2023-05-04T23:58:34.219Z,7.43
